Terminal Aerodrome Forecast
Issued by NWS Twin Cities, MN

Home | Current Version | Previous Version | Graphics & Text | Print | Product List | Glossary On
Versions: 1 2 3 4 5 6 7 8 9 10 11 12 13 14 15 16 17 18
000
FTUS43 KMPX 262300
TAFSTC
TAF
KSTC 262331Z 2700/2724 34010KT P6SM OVC100
     FM270400 33006KT P6SM SKC
     FM271600 VRB03KT P6SM SCT200
     FM272100 17005KT P6SM BKN150=

USA.gov is the U.S. government's official web portal to all federal, state and local government web resources and services.